sensor_id;sensor_type;location;lat;lon;timestamp;P1;durP1;ratioP1;P2;durP2;ratioP2
78004;SDS011;67209;51.698;-0.292;2023-07-09T00:00:14;6.07;;;2.30;;
78004;SDS011;67209;51.698;-0.292;2023-07-09T00:02:40;4.18;;;2.10;;
78004;SDS011;67209;51.698;-0.292;2023-07-09T00:05:09;5.00;;;2.42;;
78004;SDS011;67209;51.698;-0.292;2023-07-09T00:07:37;3.95;;;2.53;;
78004;SDS011;67209;51.698;-0.292;2023-07-09T00:10:03;5.18;;;2.55;;
78004;SDS011;67209;51.698;-0.292;2023-07-09T00:12:29;5.45;;;2.92;;
78004;SDS011;67209;51.698;-0.292;2023-07-09T00:14:55;5.20;;;2.53;;
78004;SDS011;67209;51.698;-0.292;2023-07-09T00:17:32;3.72;;;2.17;;
78004;SDS011;67209;51.698;-0.292;2023-07-09T00:22:24;7.35;;;2.55;;
78004;SDS011;67209;51.698;-0.292;2023-07-09T00:24:52;4.55;;;2.50;;
78004;SDS011;67209;51.698;-0.292;2023-07-09T00:27:21;5.63;;;2.15;;
78004;SDS011;67209;51.698;-0.292;2023-07-09T00:29:48;3.58;;;2.17;;
78004;SDS011;67209;51.698;-0.292;2023-07-09T00:32:15;3.53;;;2.65;;
78004;SDS011;67209;51.698;-0.292;2023-07-09T00:34:42;6.07;;;3.25;;
78004;SDS011;67209;51.698;-0.292;2023-07-09T00:37:13;3.85;;;2.65;;
78004;SDS011;67209;51.698;-0.292;2023-07-09T00:39:39;3.88;;;2.22;;
78004;SDS011;67209;51.698;-0.292;2023-07-09T00:42:10;4.05;;;2.15;;
78004;SDS011;67209;51.698;-0.292;2023-07-09T00:44:37;5.45;;;3.22;;
78004;SDS011;67209;51.698;-0.292;2023-07-09T00:49:36;5.25;;;2.35;;
78004;SDS011;67209;51.698;-0.292;2023-07-09T00:52:22;5.05;;;2.55;;
78004;SDS011;67209;51.698;-0.292;2023-07-09T00:54:48;6.95;;;2.70;;
78004;SDS011;67209;51.698;-0.292;2023-07-09T00:57:16;6.18;;;2.78;;
78004;SDS011;67209;51.698;-0.292;2023-07-09T00:59:46;4.13;;;2.65;;
78004;SDS011;67209;51.698;-0.292;2023-07-09T01:02:14;6.68;;;2.45;;
78004;SDS011;67209;51.698;-0.292;2023-07-09T01:04:40;4.88;;;2.33;;
78004;SDS011;67209;51.698;-0.292;2023-07-09T01:07:06;5.03;;;2.17;;
78004;SDS011;67209;51.698;-0.292;2023-07-09T01:09:32;3.90;;;2.33;;
78004;SDS011;67209;51.698;-0.292;2023-07-09T01:12:01;6.40;;;2.60;;
78004;SDS011;67209;51.698;-0.292;2023-07-09T01:14:29;5.35;;;2.40;;
78004;SDS011;67209;51.698;-0.292;2023-07-09T01:16:58;4.93;;;2.72;;
78004;SDS011;67209;51.698;-0.292;2023-07-09T01:19:25;3.97;;;2.17;;
78004;SDS011;67209;51.698;-0.292;2023-07-09T01:21:53;5.43;;;2.50;;
78004;SDS011;67209;51.698;-0.292;2023-07-09T01:24:46;5.22;;;2.75;;
78004;SDS011;67209;51.698;-0.292;2023-07-09T01:27:13;4.20;;;2.35;;
78004;SDS011;67209;51.698;-0.292;2023-07-09T01:29:39;4.35;;;2.42;;
78004;SDS011;67209;51.698;-0.292;2023-07-09T01:32:05;5.03;;;2.38;;
78004;SDS011;67209;51.698;-0.292;2023-07-09T01:34:32;4.63;;;2.47;;
78004;SDS011;67209;51.698;-0.292;2023-07-09T01:36:58;5.05;;;2.60;;
78004;SDS011;67209;51.698;-0.292;2023-07-09T01:39:25;5.35;;;2.15;;
78004;SDS011;67209;51.698;-0.292;2023-07-09T01:41:53;5.97;;;2.42;;
78004;SDS011;67209;51.698;-0.292;2023-07-09T01:44:19;4.03;;;2.47;;
78004;SDS011;67209;51.698;-0.292;2023-07-09T01:46:45;6.47;;;2.78;;
78004;SDS011;67209;51.698;-0.292;2023-07-09T01:49:11;4.60;;;2.40;;
78004;SDS011;67209;51.698;-0.292;2023-07-09T01:51:38;7.95;;;2.80;;
78004;SDS011;67209;51.698;-0.292;2023-07-09T01:54:05;4.57;;;2.20;;
78004;SDS011;67209;51.698;-0.292;2023-07-09T01:56:31;8.10;;;2.55;;
78004;SDS011;67209;51.698;-0.292;2023-07-09T01:58:57;4.07;;;2.03;;
78004;SDS011;67209;51.698;-0.292;2023-07-09T02:01:27;4.35;;;2.38;;
78004;SDS011;67209;51.698;-0.292;2023-07-09T02:03:53;5.32;;;2.40;;
78004;SDS011;67209;51.698;-0.292;2023-07-09T02:06:19;4.47;;;2.20;;
78004;SDS011;67209;51.698;-0.292;2023-07-09T02:08:45;4.28;;;2.38;;
78004;SDS011;67209;51.698;-0.292;2023-07-09T02:11:11;5.82;;;2.40;;
78004;SDS011;67209;51.698;-0.292;2023-07-09T02:13:37;4.72;;;2.10;;
78004;SDS011;67209;51.698;-0.292;2023-07-09T02:16:03;3.60;;;2.25;;
78004;SDS011;67209;51.698;-0.292;2023-07-09T02:18:32;4.63;;;2.10;;
78004;SDS011;67209;51.698;-0.292;2023-07-09T02:20:58;6.43;;;2.42;;
78004;SDS011;67209;51.698;-0.292;2023-07-09T02:23:27;4.10;;;2.50;;
78004;SDS011;67209;51.698;-0.292;2023-07-09T02:25:54;6.75;;;2.17;;
78004;SDS011;67209;51.698;-0.292;2023-07-09T02:28:20;4.43;;;2.50;;
78004;SDS011;67209;51.698;-0.292;2023-07-09T02:30:46;5.38;;;2.40;;
78004;SDS011;67209;51.698;-0.292;2023-07-09T02:33:12;4.53;;;2.33;;
78004;SDS011;67209;51.698;-0.292;2023-07-09T02:35:37;4.47;;;2.30;;
78004;SDS011;67209;51.698;-0.292;2023-07-09T02:38:04;5.38;;;2.92;;
78004;SDS011;67209;51.698;-0.292;2023-07-09T02:40:30;6.13;;;2.67;;
78004;SDS011;67209;51.698;-0.292;2023-07-09T02:42:56;4.22;;;2.05;;
78004;SDS011;67209;51.698;-0.292;2023-07-09T02:45:22;3.53;;;1.60;;
78004;SDS011;67209;51.698;-0.292;2023-07-09T02:47:48;4.30;;;2.08;;
78004;SDS011;67209;51.698;-0.292;2023-07-09T02:50:14;4.30;;;2.35;;
78004;SDS011;67209;51.698;-0.292;2023-07-09T02:52:40;5.25;;;2.10;;
78004;SDS011;67209;51.698;-0.292;2023-07-09T02:55:09;5.28;;;2.47;;
78004;SDS011;67209;51.698;-0.292;2023-07-09T02:57:35;4.57;;;2.38;;
78004;SDS011;67209;51.698;-0.292;2023-07-09T03:00:01;6.03;;;2.60;;
78004;SDS011;67209;51.698;-0.292;2023-07-09T03:02:30;5.25;;;2.03;;
78004;SDS011;67209;51.698;-0.292;2023-07-09T03:04:56;5.78;;;2.97;;
78004;SDS011;67209;51.698;-0.292;2023-07-09T03:07:22;3.80;;;1.88;;
78004;SDS011;67209;51.698;-0.292;2023-07-09T03:09:48;4.72;;;2.20;;
78004;SDS011;67209;51.698;-0.292;2023-07-09T03:12:14;6.07;;;2.30;;
78004;SDS011;67209;51.698;-0.292;2023-07-09T03:14:40;3.92;;;2.50;;
78004;SDS011;67209;51.698;-0.292;2023-07-09T03:17:06;3.17;;;2.20;;
78004;SDS011;67209;51.698;-0.292;2023-07-09T03:19:32;3.35;;;2.03;;
78004;SDS011;67209;51.698;-0.292;2023-07-09T03:21:58;5.03;;;2.67;;
78004;SDS011;67209;51.698;-0.292;2023-07-09T03:24:24;6.38;;;2.60;;
78004;SDS011;67209;51.698;-0.292;2023-07-09T03:26:50;5.55;;;2.30;;
78004;SDS011;67209;51.698;-0.292;2023-07-09T03:29:16;9.13;;;2.58;;
78004;SDS011;67209;51.698;-0.292;2023-07-09T03:31:42;3.70;;;2.00;;
78004;SDS011;67209;51.698;-0.292;2023-07-09T03:34:08;5.30;;;2.35;;
78004;SDS011;67209;51.698;-0.292;2023-07-09T03:36:34;4.47;;;2.00;;
78004;SDS011;67209;51.698;-0.292;2023-07-09T03:39:02;5.15;;;2.22;;
78004;SDS011;67209;51.698;-0.292;2023-07-09T03:41:28;3.17;;;1.90;;
78004;SDS011;67209;51.698;-0.292;2023-07-09T03:43:54;4.22;;;2.63;;
78004;SDS011;67209;51.698;-0.292;2023-07-09T03:46:20;6.40;;;2.45;;
78004;SDS011;67209;51.698;-0.292;2023-07-09T03:48:46;4.25;;;2.30;;
78004;SDS011;67209;51.698;-0.292;2023-07-09T03:51:12;2.63;;;1.38;;
78004;SDS011;67209;51.698;-0.292;2023-07-09T03:53:38;6.10;;;3.58;;
78004;SDS011;67209;51.698;-0.292;2023-07-09T03:56:04;5.03;;;2.30;;
78004;SDS011;67209;51.698;-0.292;2023-07-09T03:58:30;3.72;;;2.05;;
78004;SDS011;67209;51.698;-0.292;2023-07-09T04:00:56;4.45;;;2.40;;
78004;SDS011;67209;51.698;-0.292;2023-07-09T04:03:22;5.20;;;2.13;;
78004;SDS011;67209;51.698;-0.292;2023-07-09T04:05:49;6.22;;;3.00;;
78004;SDS011;67209;51.698;-0.292;2023-07-09T04:08:15;5.25;;;2.40;;
78004;SDS011;67209;51.698;-0.292;2023-07-09T04:10:41;5.45;;;2.35;;
78004;SDS011;67209;51.698;-0.292;2023-07-09T04:13:07;5.30;;;1.90;;
78004;SDS011;67209;51.698;-0.292;2023-07-09T04:15:33;4.07;;;2.13;;
78004;SDS011;67209;51.698;-0.292;2023-07-09T04:17:59;7.22;;;2.20;;
78004;SDS011;67209;51.698;-0.292;2023-07-09T04:20:25;4.82;;;2.33;;
78004;SDS011;67209;51.698;-0.292;2023-07-09T04:22:51;5.60;;;2.28;;
78004;SDS011;67209;51.698;-0.292;2023-07-09T04:25:17;4.78;;;2.35;;
78004;SDS011;67209;51.698;-0.292;2023-07-09T04:27:43;5.40;;;2.50;;
78004;SDS011;67209;51.698;-0.292;2023-07-09T04:30:10;4.68;;;1.98;;
78004;SDS011;67209;51.698;-0.292;2023-07-09T04:32:37;5.72;;;1.95;;
78004;SDS011;67209;51.698;-0.292;2023-07-09T04:35:03;3.95;;;1.90;;
78004;SDS011;67209;51.698;-0.292;2023-07-09T04:37:31;5.28;;;1.95;;
78004;SDS011;67209;51.698;-0.292;2023-07-09T04:39:57;4.18;;;2.22;;
78004;SDS011;67209;51.698;-0.292;2023-07-09T04:42:23;8.38;;;1.90;;
78004;SDS011;67209;51.698;-0.292;2023-07-09T04:44:49;7.38;;;2.13;;
78004;SDS011;67209;51.698;-0.292;2023-07-09T04:47:15;4.57;;;1.90;;
78004;SDS011;67209;51.698;-0.292;2023-07-09T04:49:41;4.68;;;2.13;;
78004;SDS011;67209;51.698;-0.292;2023-07-09T04:52:07;4.85;;;1.92;;
78004;SDS011;67209;51.698;-0.292;2023-07-09T04:54:37;6.25;;;2.28;;
78004;SDS011;67209;51.698;-0.292;2023-07-09T04:57:03;5.88;;;1.60;;
78004;SDS011;67209;51.698;-0.292;2023-07-09T04:59:30;6.07;;;1.90;;
78004;SDS011;67209;51.698;-0.292;2023-07-09T05:01:57;5.20;;;1.95;;
78004;SDS011;67209;51.698;-0.292;2023-07-09T05:04:23;5.80;;;1.95;;
78004;SDS011;67209;51.698;-0.292;2023-07-09T05:06:49;6.68;;;1.85;;
78004;SDS011;67209;51.698;-0.292;2023-07-09T05:09:15;7.15;;;2.10;;
78004;SDS011;67209;51.698;-0.292;2023-07-09T05:11:41;6.47;;;1.95;;
78004;SDS011;67209;51.698;-0.292;2023-07-09T05:14:07;6.35;;;2.00;;
78004;SDS011;67209;51.698;-0.292;2023-07-09T05:16:33;6.47;;;1.77;;
78004;SDS011;67209;51.698;-0.292;2023-07-09T05:18:59;5.18;;;1.60;;
78004;SDS011;67209;51.698;-0.292;2023-07-09T05:21:24;3.95;;;2.05;;
78004;SDS011;67209;51.698;-0.292;2023-07-09T05:23:51;8.23;;;2.28;;
78004;SDS011;67209;51.698;-0.292;2023-07-09T05:26:16;6.82;;;1.77;;
78004;SDS011;67209;51.698;-0.292;2023-07-09T05:28:42;4.90;;;2.10;;
78004;SDS011;67209;51.698;-0.292;2023-07-09T05:31:08;5.78;;;1.80;;
78004;SDS011;67209;51.698;-0.292;2023-07-09T05:33:35;4.55;;;2.08;;
78004;SDS011;67209;51.698;-0.292;2023-07-09T05:36:01;3.80;;;1.90;;
78004;SDS011;67209;51.698;-0.292;2023-07-09T05:38:27;5.28;;;1.80;;
78004;SDS011;67209;51.698;-0.292;2023-07-09T05:41:02;7.00;;;2.13;;
78004;SDS011;67209;51.698;-0.292;2023-07-09T05:43:29;5.53;;;1.65;;
78004;SDS011;67209;51.698;-0.292;2023-07-09T05:45:55;4.10;;;1.98;;
78004;SDS011;67209;51.698;-0.292;2023-07-09T05:48:21;4.97;;;2.15;;
78004;SDS011;67209;51.698;-0.292;2023-07-09T05:50:48;4.13;;;1.98;;
78004;SDS011;67209;51.698;-0.292;2023-07-09T05:53:14;7.00;;;2.00;;
78004;SDS011;67209;51.698;-0.292;2023-07-09T05:55:40;5.30;;;2.42;;
78004;SDS011;67209;51.698;-0.292;2023-07-09T05:58:07;6.03;;;2.00;;
78004;SDS011;67209;51.698;-0.292;2023-07-09T06:00:33;6.05;;;1.80;;
78004;SDS011;67209;51.698;-0.292;2023-07-09T06:02:59;8.07;;;2.35;;
78004;SDS011;67209;51.698;-0.292;2023-07-09T06:05:26;8.52;;;2.05;;
78004;SDS011;67209;51.698;-0.292;2023-07-09T06:07:54;5.90;;;2.38;;
78004;SDS011;67209;51.698;-0.292;2023-07-09T06:10:20;7.22;;;1.90;;
78004;SDS011;67209;51.698;-0.292;2023-07-09T06:12:46;9.02;;;1.80;;
78004;SDS011;67209;51.698;-0.292;2023-07-09T06:15:13;4.22;;;1.83;;
78004;SDS011;67209;51.698;-0.292;2023-07-09T06:17:40;4.43;;;1.90;;
78004;SDS011;67209;51.698;-0.292;2023-07-09T06:20:07;8.57;;;2.10;;
78004;SDS011;67209;51.698;-0.292;2023-07-09T06:22:33;6.25;;;2.08;;
78004;SDS011;67209;51.698;-0.292;2023-07-09T06:24:59;4.15;;;2.47;;
78004;SDS011;67209;51.698;-0.292;2023-07-09T06:27:25;4.78;;;1.90;;
78004;SDS011;67209;51.698;-0.292;2023-07-09T06:29:51;7.32;;;2.13;;
78004;SDS011;67209;51.698;-0.292;2023-07-09T06:32:18;6.55;;;2.75;;
78004;SDS011;67209;51.698;-0.292;2023-07-09T06:34:44;4.97;;;2.10;;
78004;SDS011;67209;51.698;-0.292;2023-07-09T06:37:10;5.90;;;1.95;;
78004;SDS011;67209;51.698;-0.292;2023-07-09T06:39:36;7.10;;;2.00;;
78004;SDS011;67209;51.698;-0.292;2023-07-09T06:42:02;5.63;;;1.92;;
78004;SDS011;67209;51.698;-0.292;2023-07-09T06:44:28;8.18;;;2.40;;
78004;SDS011;67209;51.698;-0.292;2023-07-09T06:46:54;5.32;;;1.83;;
78004;SDS011;67209;51.698;-0.292;2023-07-09T06:49:20;6.28;;;1.80;;
78004;SDS011;67209;51.698;-0.292;2023-07-09T06:51:46;7.40;;;2.15;;
78004;SDS011;67209;51.698;-0.292;2023-07-09T06:54:12;5.45;;;2.03;;
78004;SDS011;67209;51.698;-0.292;2023-07-09T06:56:40;5.80;;;2.17;;
78004;SDS011;67209;51.698;-0.292;2023-07-09T06:59:06;8.68;;;2.53;;
78004;SDS011;67209;51.698;-0.292;2023-07-09T07:01:32;4.88;;;2.45;;
78004;SDS011;67209;51.698;-0.292;2023-07-09T07:03:58;6.65;;;2.15;;
78004;SDS011;67209;51.698;-0.292;2023-07-09T07:06:25;7.22;;;2.08;;
78004;SDS011;67209;51.698;-0.292;2023-07-09T07:08:51;4.20;;;1.98;;
78004;SDS011;67209;51.698;-0.292;2023-07-09T07:11:17;7.88;;;2.10;;
78004;SDS011;67209;51.698;-0.292;2023-07-09T07:13:43;4.45;;;1.88;;
78004;SDS011;67209;51.698;-0.292;2023-07-09T07:16:11;5.40;;;2.15;;
78004;SDS011;67209;51.698;-0.292;2023-07-09T07:18:38;7.00;;;2.35;;
78004;SDS011;67209;51.698;-0.292;2023-07-09T07:21:04;5.38;;;2.38;;
78004;SDS011;67209;51.698;-0.292;2023-07-09T07:23:30;8.23;;;2.03;;
78004;SDS011;67209;51.698;-0.292;2023-07-09T07:25:56;4.63;;;2.00;;
78004;SDS011;67209;51.698;-0.292;2023-07-09T07:28:22;6.57;;;2.22;;
78004;SDS011;67209;51.698;-0.292;2023-07-09T07:30:58;7.03;;;2.05;;
78004;SDS011;67209;51.698;-0.292;2023-07-09T07:33:25;5.25;;;1.88;;
78004;SDS011;67209;51.698;-0.292;2023-07-09T07:35:51;6.32;;;2.17;;
78004;SDS011;67209;51.698;-0.292;2023-07-09T07:38:17;6.85;;;2.05;;
78004;SDS011;67209;51.698;-0.292;2023-07-09T07:40:46;4.22;;;2.10;;
78004;SDS011;67209;51.698;-0.292;2023-07-09T07:43:12;5.80;;;2.22;;
78004;SDS011;67209;51.698;-0.292;2023-07-09T07:45:41;5.72;;;2.10;;
78004;SDS011;67209;51.698;-0.292;2023-07-09T07:48:08;5.88;;;2.83;;
78004;SDS011;67209;51.698;-0.292;2023-07-09T07:50:34;6.40;;;2.20;;
78004;SDS011;67209;51.698;-0.292;2023-07-09T07:53:00;8.65;;;3.10;;
78004;SDS011;67209;51.698;-0.292;2023-07-09T07:55:26;8.52;;;1.92;;
78004;SDS011;67209;51.698;-0.292;2023-07-09T07:57:52;8.38;;;2.03;;
78004;SDS011;67209;51.698;-0.292;2023-07-09T08:00:19;6.78;;;2.40;;
78004;SDS011;67209;51.698;-0.292;2023-07-09T08:02:45;6.72;;;2.50;;
78004;SDS011;67209;51.698;-0.292;2023-07-09T08:05:11;6.38;;;1.75;;
78004;SDS011;67209;51.698;-0.292;2023-07-09T08:07:37;10.18;;;2.67;;
78004;SDS011;67209;51.698;-0.292;2023-07-09T08:10:03;8.75;;;2.20;;
78004;SDS011;67209;51.698;-0.292;2023-07-09T08:12:29;9.40;;;2.28;;
78004;SDS011;67209;51.698;-0.292;2023-07-09T08:14:55;5.93;;;1.90;;
78004;SDS011;67209;51.698;-0.292;2023-07-09T08:17:21;10.82;;;2.25;;
78004;SDS011;67209;51.698;-0.292;2023-07-09T08:19:51;7.47;;;2.38;;
78004;SDS011;67209;51.698;-0.292;2023-07-09T08:22:18;7.38;;;2.05;;
78004;SDS011;67209;51.698;-0.292;2023-07-09T08:24:45;8.25;;;2.45;;
78004;SDS011;67209;51.698;-0.292;2023-07-09T08:27:11;6.47;;;2.17;;
78004;SDS011;67209;51.698;-0.292;2023-07-09T08:29:37;8.02;;;2.25;;
78004;SDS011;67209;51.698;-0.292;2023-07-09T08:32:05;11.27;;;2.00;;
78004;SDS011;67209;51.698;-0.292;2023-07-09T08:34:31;7.22;;;2.15;;
78004;SDS011;67209;51.698;-0.292;2023-07-09T08:36:58;8.23;;;1.77;;
78004;SDS011;67209;51.698;-0.292;2023-07-09T08:39:24;9.90;;;2.30;;
78004;SDS011;67209;51.698;-0.292;2023-07-09T08:42:00;7.32;;;2.10;;
78004;SDS011;67209;51.698;-0.292;2023-07-09T08:44:34;5.97;;;1.77;;
78004;SDS011;67209;51.698;-0.292;2023-07-09T08:47:05;7.85;;;2.25;;
78004;SDS011;67209;51.698;-0.292;2023-07-09T08:49:43;7.00;;;2.13;;
78004;SDS011;67209;51.698;-0.292;2023-07-09T08:52:18;5.03;;;2.20;;
78004;SDS011;67209;51.698;-0.292;2023-07-09T08:54:47;8.13;;;3.10;;
78004;SDS011;67209;51.698;-0.292;2023-07-09T08:57:15;6.65;;;2.00;;
78004;SDS011;67209;51.698;-0.292;2023-07-09T08:59:43;5.72;;;1.92;;
78004;SDS011;67209;51.698;-0.292;2023-07-09T09:02:22;6.47;;;2.13;;
78004;SDS011;67209;51.698;-0.292;2023-07-09T09:04:52;8.43;;;2.20;;
78004;SDS011;67209;51.698;-0.292;2023-07-09T09:07:20;5.90;;;2.33;;
78004;SDS011;67209;51.698;-0.292;2023-07-09T09:09:56;5.18;;;2.28;;
78004;SDS011;67209;51.698;-0.292;2023-07-09T09:12:25;6.47;;;1.55;;
78004;SDS011;67209;51.698;-0.292;2023-07-09T09:15:00;7.30;;;2.28;;
78004;SDS011;67209;51.698;-0.292;2023-07-09T09:17:27;7.55;;;1.60;;
78004;SDS011;67209;51.698;-0.292;2023-07-09T09:20:01;6.93;;;2.03;;
78004;SDS011;67209;51.698;-0.292;2023-07-09T09:27:49;7.97;;;2.17;;
78004;SDS011;67209;51.698;-0.292;2023-07-09T09:30:17;10.70;;;1.77;;
78004;SDS011;67209;51.698;-0.292;2023-07-09T09:33:36;7.32;;;2.08;;
78004;SDS011;67209;51.698;-0.292;2023-07-09T09:35:31;6.95;;;2.08;;
78004;SDS011;67209;51.698;-0.292;2023-07-09T09:37:58;5.25;;;1.52;;
78004;SDS011;67209;51.698;-0.292;2023-07-09T09:40:25;6.57;;;1.95;;
78004;SDS011;67209;51.698;-0.292;2023-07-09T09:42:54;8.98;;;2.05;;
78004;SDS011;67209;51.698;-0.292;2023-07-09T09:45:21;5.32;;;1.90;;
78004;SDS011;67209;51.698;-0.292;2023-07-09T09:47:47;7.18;;;2.17;;
78004;SDS011;67209;51.698;-0.292;2023-07-09T09:50:15;3.90;;;1.45;;
78004;SDS011;67209;51.698;-0.292;2023-07-09T09:52:41;5.90;;;2.08;;
78004;SDS011;67209;51.698;-0.292;2023-07-09T09:55:27;5.18;;;1.80;;
78004;SDS011;67209;51.698;-0.292;2023-07-09T09:57:54;5.07;;;1.60;;
78004;SDS011;67209;51.698;-0.292;2023-07-09T10:00:22;8.20;;;2.15;;
78004;SDS011;67209;51.698;-0.292;2023-07-09T10:02:50;8.50;;;1.80;;
78004;SDS011;67209;51.698;-0.292;2023-07-09T10:05:16;5.78;;;1.60;;
78004;SDS011;67209;51.698;-0.292;2023-07-09T10:07:47;7.82;;;1.80;;
78004;SDS011;67209;51.698;-0.292;2023-07-09T10:10:19;4.82;;;1.50;;
78004;SDS011;67209;51.698;-0.292;2023-07-09T10:12:51;5.00;;;1.70;;
78004;SDS011;67209;51.698;-0.292;2023-07-09T10:20:38;5.32;;;1.92;;
78004;SDS011;67209;51.698;-0.292;2023-07-09T10:25:40;5.18;;;1.35;;
78004;SDS011;67209;51.698;-0.292;2023-07-09T10:30:57;5.18;;;1.50;;
78004;SDS011;67209;51.698;-0.292;2023-07-09T10:33:39;5.55;;;1.80;;
78004;SDS011;67209;51.698;-0.292;2023-07-09T10:40:59;5.63;;;2.22;;
78004;SDS011;67209;51.698;-0.292;2023-07-09T10:46:02;5.50;;;1.02;;
78004;SDS011;67209;51.698;-0.292;2023-07-09T10:48:37;2.60;;;1.17;;
78004;SDS011;67209;51.698;-0.292;2023-07-09T10:51:04;8.98;;;1.55;;
78004;SDS011;67209;51.698;-0.292;2023-07-09T10:53:38;5.10;;;1.52;;
78004;SDS011;67209;51.698;-0.292;2023-07-09T10:56:14;5.32;;;1.42;;
78004;SDS011;67209;51.698;-0.292;2023-07-09T11:01:06;4.35;;;1.15;;
78004;SDS011;67209;51.698;-0.292;2023-07-09T11:03:52;4.97;;;1.30;;
78004;SDS011;67209;51.698;-0.292;2023-07-09T11:06:22;4.05;;;1.35;;
78004;SDS011;67209;51.698;-0.292;2023-07-09T11:08:50;3.35;;;1.00;;
78004;SDS011;67209;51.698;-0.292;2023-07-09T11:11:21;4.15;;;1.20;;
78004;SDS011;67209;51.698;-0.292;2023-07-09T11:13:53;4.28;;;1.30;;
78004;SDS011;67209;51.698;-0.292;2023-07-09T11:16:29;5.53;;;1.08;;
78004;SDS011;67209;51.698;-0.292;2023-07-09T11:18:58;4.07;;;1.05;;
78004;SDS011;67209;51.698;-0.292;2023-07-09T11:21:25;5.93;;;1.65;;
78004;SDS011;67209;51.698;-0.292;2023-07-09T11:23:52;3.85;;;1.35;;
78004;SDS011;67209;51.698;-0.292;2023-07-09T11:26:26;4.47;;;1.67;;
78004;SDS011;67209;51.698;-0.292;2023-07-09T11:28:53;5.68;;;1.90;;
78004;SDS011;67209;51.698;-0.292;2023-07-09T11:31:21;6.63;;;3.15;;
78004;SDS011;67209;51.698;-0.292;2023-07-09T11:33:49;5.10;;;2.47;;
78004;SDS011;67209;51.698;-0.292;2023-07-09T11:36:26;9.38;;;4.50;;
78004;SDS011;67209;51.698;-0.292;2023-07-09T11:44:00;6.03;;;3.03;;
78004;SDS011;67209;51.698;-0.292;2023-07-09T11:46:28;7.25;;;2.25;;
78004;SDS011;67209;51.698;-0.292;2023-07-09T11:48:54;4.32;;;1.80;;
78004;SDS011;67209;51.698;-0.292;2023-07-09T11:51:26;5.82;;;2.22;;
78004;SDS011;67209;51.698;-0.292;2023-07-09T11:53:55;3.35;;;1.15;;
78004;SDS011;67209;51.698;-0.292;2023-07-09T11:56:22;2.85;;;1.30;;
78004;SDS011;67209;51.698;-0.292;2023-07-09T11:58:54;5.50;;;1.30;;
78004;SDS011;67209;51.698;-0.292;2023-07-09T12:01:21;4.65;;;1.60;;
78004;SDS011;67209;51.698;-0.292;2023-07-09T12:03:47;4.15;;;1.35;;
78004;SDS011;67209;51.698;-0.292;2023-07-09T12:06:20;4.10;;;1.20;;
78004;SDS011;67209;51.698;-0.292;2023-07-09T12:08:47;3.38;;;1.08;;
78004;SDS011;67209;51.698;-0.292;2023-07-09T12:11:21;3.08;;;1.30;;
78004;SDS011;67209;51.698;-0.292;2023-07-09T12:13:47;2.45;;;1.83;;
78004;SDS011;67209;51.698;-0.292;2023-07-09T12:16:27;2.03;;;1.00;;
78004;SDS011;67209;51.698;-0.292;2023-07-09T12:18:53;4.80;;;1.38;;
78004;SDS011;67209;51.698;-0.292;2023-07-09T12:21:19;4.03;;;1.08;;
78004;SDS011;67209;51.698;-0.292;2023-07-09T12:23:45;3.78;;;1.10;;
78004;SDS011;67209;51.698;-0.292;2023-07-09T12:26:13;3.22;;;1.17;;
78004;SDS011;67209;51.698;-0.292;2023-07-09T12:28:39;3.47;;;1.50;;
78004;SDS011;67209;51.698;-0.292;2023-07-09T12:31:15;4.57;;;1.45;;
78004;SDS011;67209;51.698;-0.292;2023-07-09T12:33:48;3.22;;;1.52;;
78004;SDS011;67209;51.698;-0.292;2023-07-09T12:36:14;3.70;;;1.63;;
78004;SDS011;67209;51.698;-0.292;2023-07-09T12:38:42;5.15;;;1.42;;
78004;SDS011;67209;51.698;-0.292;2023-07-09T12:41:28;4.90;;;1.27;;
78004;SDS011;67209;51.698;-0.292;2023-07-09T12:43:54;3.95;;;1.55;;
78004;SDS011;67209;51.698;-0.292;2023-07-09T12:46:21;4.68;;;1.30;;
78004;SDS011;67209;51.698;-0.292;2023-07-09T12:48:48;3.40;;;1.10;;
78004;SDS011;67209;51.698;-0.292;2023-07-09T12:51:18;4.65;;;1.45;;
78004;SDS011;67209;51.698;-0.292;2023-07-09T12:53:45;5.53;;;1.25;;
78004;SDS011;67209;51.698;-0.292;2023-07-09T12:56:12;4.63;;;1.50;;
78004;SDS011;67209;51.698;-0.292;2023-07-09T12:58:39;3.97;;;1.17;;
78004;SDS011;67209;51.698;-0.292;2023-07-09T13:01:16;4.93;;;1.40;;
78004;SDS011;67209;51.698;-0.292;2023-07-09T13:03:51;6.10;;;1.70;;
78004;SDS011;67209;51.698;-0.292;2023-07-09T13:09:00;2.33;;;1.40;;
78004;SDS011;67209;51.698;-0.292;2023-07-09T13:11:35;3.22;;;1.15;;
78004;SDS011;67209;51.698;-0.292;2023-07-09T13:14:03;4.18;;;1.38;;
78004;SDS011;67209;51.698;-0.292;2023-07-09T13:16:29;4.97;;;1.20;;
78004;SDS011;67209;51.698;-0.292;2023-07-09T13:18:55;3.35;;;1.27;;
78004;SDS011;67209;51.698;-0.292;2023-07-09T13:21:22;5.38;;;1.92;;
78004;SDS011;67209;51.698;-0.292;2023-07-09T13:23:48;3.92;;;1.30;;
78004;SDS011;67209;51.698;-0.292;2023-07-09T13:26:15;3.88;;;1.88;;
78004;SDS011;67209;51.698;-0.292;2023-07-09T13:28:42;5.03;;;1.27;;
78004;SDS011;67209;51.698;-0.292;2023-07-09T13:31:15;4.10;;;1.20;;
78004;SDS011;67209;51.698;-0.292;2023-07-09T13:33:42;4.97;;;1.38;;
78004;SDS011;67209;51.698;-0.292;2023-07-09T13:36:08;4.05;;;1.20;;
78004;SDS011;67209;51.698;-0.292;2023-07-09T13:38:35;4.22;;;1.48;;
78004;SDS011;67209;51.698;-0.292;2023-07-09T13:41:09;2.97;;;1.13;;
78004;SDS011;67209;51.698;-0.292;2023-07-09T13:43:37;4.22;;;0.82;;
78004;SDS011;67209;51.698;-0.292;2023-07-09T13:46:06;5.03;;;1.30;;
78004;SDS011;67209;51.698;-0.292;2023-07-09T13:48:32;4.32;;;1.27;;
78004;SDS011;67209;51.698;-0.292;2023-07-09T13:50:59;4.28;;;1.40;;
78004;SDS011;67209;51.698;-0.292;2023-07-09T13:53:29;3.97;;;1.30;;
78004;SDS011;67209;51.698;-0.292;2023-07-09T13:55:57;5.43;;;1.10;;
78004;SDS011;67209;51.698;-0.292;2023-07-09T13:58:24;2.85;;;1.38;;
78004;SDS011;67209;51.698;-0.292;2023-07-09T14:00:54;4.03;;;1.17;;
78004;SDS011;67209;51.698;-0.292;2023-07-09T14:03:22;4.22;;;1.65;;
78004;SDS011;67209;51.698;-0.292;2023-07-09T14:05:49;5.43;;;1.60;;
78004;SDS011;67209;51.698;-0.292;2023-07-09T14:08:15;4.97;;;1.50;;
78004;SDS011;67209;51.698;-0.292;2023-07-09T14:10:42;6.07;;;1.65;;
78004;SDS011;67209;51.698;-0.292;2023-07-09T14:13:10;4.72;;;1.67;;
78004;SDS011;67209;51.698;-0.292;2023-07-09T14:15:38;5.57;;;1.67;;
78004;SDS011;67209;51.698;-0.292;2023-07-09T14:18:05;3.97;;;1.17;;
78004;SDS011;67209;51.698;-0.292;2023-07-09T14:20:31;3.53;;;1.50;;
78004;SDS011;67209;51.698;-0.292;2023-07-09T14:22:57;7.00;;;1.65;;
78004;SDS011;67209;51.698;-0.292;2023-07-09T14:25:24;3.28;;;1.00;;
78004;SDS011;67209;51.698;-0.292;2023-07-09T14:27:52;5.20;;;1.20;;
78004;SDS011;67209;51.698;-0.292;2023-07-09T14:30:19;3.65;;;1.38;;
78004;SDS011;67209;51.698;-0.292;2023-07-09T14:32:47;3.33;;;0.80;;
78004;SDS011;67209;51.698;-0.292;2023-07-09T14:35:23;6.13;;;2.20;;
78004;SDS011;67209;51.698;-0.292;2023-07-09T14:37:51;4.57;;;1.70;;
78004;SDS011;67209;51.698;-0.292;2023-07-09T14:40:17;4.32;;;1.30;;
78004;SDS011;67209;51.698;-0.292;2023-07-09T14:42:45;4.00;;;1.25;;
78004;SDS011;67209;51.698;-0.292;2023-07-09T14:45:15;4.65;;;1.42;;
78004;SDS011;67209;51.698;-0.292;2023-07-09T14:47:42;3.60;;;1.50;;
78004;SDS011;67209;51.698;-0.292;2023-07-09T14:50:08;3.47;;;1.33;;
78004;SDS011;67209;51.698;-0.292;2023-07-09T14:52:34;5.22;;;1.48;;
78004;SDS011;67209;51.698;-0.292;2023-07-09T14:55:01;4.53;;;1.50;;
78004;SDS011;67209;51.698;-0.292;2023-07-09T14:57:27;4.53;;;1.52;;
78004;SDS011;67209;51.698;-0.292;2023-07-09T14:59:55;6.68;;;1.13;;
78004;SDS011;67209;51.698;-0.292;2023-07-09T15:02:25;4.28;;;1.30;;
78004;SDS011;67209;51.698;-0.292;2023-07-09T15:04:56;3.58;;;1.40;;
78004;SDS011;67209;51.698;-0.292;2023-07-09T15:07:22;4.47;;;1.27;;
78004;SDS011;67209;51.698;-0.292;2023-07-09T15:09:54;3.60;;;1.25;;
78004;SDS011;67209;51.698;-0.292;2023-07-09T15:12:22;5.10;;;1.20;;
78004;SDS011;67209;51.698;-0.292;2023-07-09T15:14:50;4.80;;;1.30;;